Meteoalarm - Portugal e Ilhas:

Avisos Meteorológicos para Portugal e Ilhas


Visite-nos no Facebook:

Visite-nos no Facebook


Madeira Webcams:


Grupo MeteoRAM Facebook:

Junte-se ao melhor e mais completo grupo de Meteorologia da Região Autónoma da Madeira



Existe um problema de comunicação. Vá diretamente para o site do Meteoalarm : www.meteoalarm.eu e verifique os avisos meteorológicos pelo site oficial .

Weather Underground Histórico da Estação

Diário Resumo para Fevereiro 23, 2019 Unidades:  Métrico    Inglês   Ambos
« Anterior Dia
Seguinte Dia »
Diário Semanal Mensal Anual Personalizado
  Atualmente: Alto: Baixo: Média:
Temperatura: -9.7 °C -17.8 °C -10.1 °C -9.4 °C
Ponto de orvalho: -14.1 °C -17.8 °C -14.8 °C -13.6 °C
Humidade: 59 % Humidity % 56 % 60 %
Velocidade do Vento: 5.6 km/h 0 km/h 0 km/h 7.2 km/h
Rajada de vento: 14 km/h 0 km/h - -
Vento:NNW - - WSW
Pressão Atmosférica: 34625.2 hPa 0 hPa 34618.5 hPa -
Precipitação: 0 mm      
Historical Graphs
 
 
Dados Tabulares para Fevereiro 23, 2019
Hora Temperatura Ponto de orvalho Pressão Atmosférica Vento Velocidade do Vento Rajada de vento Humidade Taxa de Precipitação (Por hora)
-17.8 °C -17.8 °C 0 hPa Calm     Humidity % 0 mm
00:04 -9.6 °C -14.4 °C 34632 hPa NNW 4.2 km/h 11.6 km/h 56 % 0 mm
00:09 -9.6 °C -14.4 °C 34625.2 hPa North 8 km/h 11.6 km/h 56 % 0 mm
00:14 -8.9 °C -13.5 °C 34625.2 hPa SE 15.6 km/h 39.4 km/h 58 % 0 mm
00:19 -8.2 °C -11.5 °C 34628.6 hPa ESE 25.4 km/h 39.4 km/h 68 % 0 mm
00:24 -8.1 °C -11 °C 34628.6 hPa East 27.7 km/h 41.2 km/h 71 % 0 mm
00:29 -7.9 °C -10.7 °C 34628.6 hPa East 21.6 km/h 41.2 km/h 72 % 0 mm
00:34 -7.9 °C -10.5 °C 34628.6 hPa East 19.6 km/h 41.2 km/h 74 % 0 mm
00:40 -7.8 °C -10.3 °C 34632 hPa East 21.6 km/h 41.2 km/h 75 % 0 mm
00:44 -7.8 °C -10.2 °C 34628.6 hPa East 11.6 km/h 43.5 km/h 76 % 0 mm
00:50 -7.8 °C -10.2 °C 34635.4 hPa East 15.6 km/h 43.5 km/h 76 % 0 mm
00:55 -7.8 °C -10.2 °C 34635.4 hPa East 9.8 km/h 41.2 km/h 76 % 0 mm
01:00 -7.8 °C -10.2 °C 34642.2 hPa ENE 11.6 km/h 31.4 km/h 76 % 0 mm
01:04 -7.9 °C -10.3 °C 34645.6 hPa NE 9.8 km/h 31.4 km/h 76 % 0 mm
01:10 -8.4 °C -11.3 °C 34648.9 hPa ENE 4.2 km/h 19.6 km/h 72 % 0 mm
01:14 -8.7 °C -11.7 °C 34648.9 hPa Calm   14 km/h 70 % 0 mm
01:19 -8.9 °C -12.6 °C 34648.9 hPa NNW 5.6 km/h 14 km/h 65 % 0 mm
01:24 -9 °C -12.8 °C 34648.9 hPa NNW 5.6 km/h 14 km/h 64 % 0 mm
01:29 -9.2 °C -13.3 °C 34652.3 hPa North 9.8 km/h 15.6 km/h 61 % 0 mm
01:34 -9.3 °C -13.7 °C 34652.3 hPa North 5.6 km/h 21.6 km/h 59 % 0 mm
01:39 -9.3 °C -13.7 °C 34648.9 hPa North 4.2 km/h 21.6 km/h 59 % 0 mm
01:44 -9.4 °C -13.9 °C 34648.9 hPa North 5.6 km/h 11.6 km/h 58 % 0 mm
01:49 -9.4 °C -14.1 °C 34645.6 hPa North 5.6 km/h 14 km/h 57 % 0 mm
01:54 -9.4 °C -14.1 °C 34645.6 hPa North 5.6 km/h 14 km/h 57 % 0 mm
02:00 -9.4 °C -13.9 °C 34648.9 hPa NNW 1.8 km/h 14 km/h 58 % 0 mm
02:04 -9.4 °C -14 °C 34645.6 hPa NNW 1.8 km/h 9.8 km/h 58 % 0 mm
02:09 -9.5 °C -14.1 °C 34648.9 hPa NNW 1.8 km/h 9.8 km/h 58 % 0 mm
02:14 -9.5 °C -14.1 °C 34645.6 hPa NNW 1.8 km/h 8 km/h 58 % 0 mm
02:20 -9.6 °C -14.1 °C 34645.6 hPa Calm   8 km/h 58 % 0 mm
02:25 -9.6 °C -14.2 °C 34642.2 hPa NNW 5.6 km/h 8 km/h 58 % 0 mm
02:29 -9.6 °C -13.8 °C 34638.8 hPa North 4.2 km/h 9.8 km/h 60 % 0 mm
02:34 -9.6 °C -14 °C 34632 hPa NNW 4.2 km/h 9.8 km/h 59 % 0 mm
02:40 -9.7 °C -14.3 °C 34632 hPa WNW 1.8 km/h 8 km/h 58 % 0 mm
02:45 -9.8 °C -14.4 °C 34638.8 hPa NNW 4.2 km/h 8 km/h 57 % 0 mm
02:49 -9.9 °C -14.7 °C 34635.4 hPa North 5.6 km/h 15.6 km/h 56 % 0 mm
02:55 -9.9 °C -14.8 °C 34635.4 hPa NNW 8 km/h 15.6 km/h 56 % 0 mm
02:59 -9.9 °C -14.8 °C 34638.8 hPa NNW 9.8 km/h 14 km/h 56 % 0 mm
03:05 -9.9 °C -14.8 °C 34642.2 hPa NNW 5.6 km/h 14 km/h 56 % 0 mm
03:09 -10 °C -14.8 °C 34642.2 hPa NNW 5.6 km/h 14 km/h 56 % 0 mm
03:15 -10 °C -14.8 °C 34638.8 hPa NNW 8 km/h 14 km/h 56 % 0 mm
03:19 -10.1 °C -14.8 °C 34638.8 hPa North 1.8 km/h 11.6 km/h 56 % 0 mm
03:24 -10.1 °C -14.8 °C 34635.4 hPa NNW 4.2 km/h 9.8 km/h 56 % 0 mm
03:29 -10.1 °C -14.8 °C 34635.4 hPa NNW 5.6 km/h 11.6 km/h 56 % 0 mm
03:35 -9.9 °C -14.7 °C 34632 hPa NNW 8 km/h 15.6 km/h 56 % 0 mm
03:39 -9.9 °C -14.8 °C 34628.6 hPa NNW 9.8 km/h 15.6 km/h 56 % 0 mm
03:45 -9.9 °C -14.7 °C 34621.9 hPa Calm   14 km/h 56 % 0 mm
03:50 -9.9 °C -14.7 °C 34621.9 hPa NNW 4.2 km/h 15.6 km/h 56 % 0 mm
03:54 -9.8 °C -14.4 °C 34618.5 hPa NNW 4.2 km/h 15.6 km/h 57 % 0 mm
04:00 -9.8 °C -14.3 °C 34621.9 hPa NNW 8 km/h 14 km/h 58 % 0 mm
04:05 -9.8 °C -14.6 °C 34618.5 hPa NNW 4.2 km/h 14 km/h 56 % 0 mm
04:10 -9.9 °C -14.7 °C 34618.5 hPa North 5.6 km/h 14 km/h 56 % 0 mm
04:14 -9.8 °C -14.3 °C 34621.9 hPa NNW 5.6 km/h 14 km/h 58 % 0 mm
04:19 -9.7 °C -14 °C 34625.2 hPa NNW 5.6 km/h 15.6 km/h 60 % 0 mm
04:24 -9.7 °C -14.1 °C 34625.2 hPa NNW 5.6 km/h 15.6 km/h 59 % 0 mm
04:30 -9.8 °C -14.3 °C 34625.2 hPa NNW 4.2 km/h 14 km/h 58 % 0 mm
04:35 -9.8 °C -14.3 °C 34625.2 hPa North 4.2 km/h 14 km/h 58 % 0 mm
04:39 -9.7 °C -14.1 °C 34625.2 hPa NNW 5.6 km/h 14 km/h 59 % 0 mm
MeteoMachico
Cumprimentos de Weather Underground - 2.5 mb

Script original por  Jim McMurry - jmcmurry@mwt.net Adaptado para o modelo por  Wim van der Kuil - Leuven-Template.eu

Equipamento que usamos:

Estação Meteorológica
Weatherwise ws-1080

IPCAM
Dericam H502W

Servidor
Digital Ocean

Weatherwise ws-1080

Dericam H502W

Digital Ocean